createdAt,value
2022-08-22T00:02:14.410Z,13.75
2022-08-22T00:03:02.385Z,4.80
2022-08-22T00:03:08.328Z,5.53
2022-08-22T00:05:09.484Z,16.38
2022-08-22T00:07:52.283Z,16.77
2022-08-22T00:10:43.402Z,16.88
2022-08-22T00:13:22.809Z,19.45
2022-08-22T00:15:57.564Z,20.75
2022-08-22T00:18:44.256Z,22.63
2022-08-22T00:21:16.392Z,22.73
2022-08-22T00:24:23.218Z,24.33
2022-08-22T00:27:04.505Z,25.27
2022-08-22T00:29:57.412Z,26.73
2022-08-22T00:32:59.990Z,25.45
2022-08-22T00:35:44.414Z,27.73
2022-08-22T00:38:47.743Z,29.20
2022-08-22T00:41:35.084Z,29.40
2022-08-22T00:44:15.166Z,30.52
2022-08-22T00:46:58.302Z,31.83
2022-08-22T00:49:43.581Z,34.50
2022-08-22T00:52:20.353Z,34.03
2022-08-22T00:54:50.704Z,33.55
2022-08-22T00:57:37.048Z,31.00
2022-08-22T01:03:39.279Z,28.38
2022-08-22T01:06:25.316Z,29.00
2022-08-22T01:09:01.864Z,26.40
2022-08-22T01:11:41.678Z,24.65
2022-08-22T01:14:34.886Z,24.73
2022-08-22T01:17:22.906Z,22.80
2022-08-22T01:20:28.250Z,26.50
2022-08-22T01:23:14.496Z,25.45
2022-08-22T01:26:05.617Z,26.30
2022-08-22T01:28:42.287Z,25.67
2022-08-22T01:31:49.873Z,23.73
2022-08-22T01:34:36.461Z,23.73
2022-08-22T01:37:33.119Z,23.50
2022-08-22T01:40:23.343Z,23.33
2022-08-22T01:43:58.951Z,23.95
2022-08-22T01:46:54.144Z,23.70
2022-08-22T01:49:30.985Z,23.70
2022-08-22T01:52:05.839Z,23.15
2022-08-22T01:55:00.262Z,23.13
2022-08-22T01:57:28.452Z,23.20
2022-08-22T01:59:59.976Z,22.27
2022-08-22T02:02:48.012Z,23.55
2022-08-22T02:05:25.220Z,23.77
2022-08-22T02:08:04.265Z,25.50
2022-08-22T02:11:14.831Z,26.08
2022-08-22T02:13:55.648Z,29.13
2022-08-22T02:16:43.780Z,32.95
2022-08-22T02:19:14.344Z,32.90
2022-08-22T02:21:50.608Z,35.80
2022-08-22T02:24:27.452Z,38.05
2022-08-22T02:27:32.155Z,43.70
2022-08-22T02:30:16.216Z,46.08
2022-08-22T02:32:44.357Z,49.15
2022-08-22T02:35:31.167Z,51.55
2022-08-22T02:38:21.671Z,55.72
2022-08-22T02:40:52.149Z,61.40
2022-08-22T02:43:45.114Z,59.72
2022-08-22T02:46:39.724Z,60.63
2022-08-22T02:49:51.430Z,61.58
2022-08-22T02:52:26.004Z,61.95
2022-08-22T02:55:07.188Z,64.18
2022-08-22T02:57:46.105Z,60.97
2022-08-22T03:00:32.641Z,61.67
2022-08-22T03:03:25.944Z,62.65
2022-08-22T03:06:10.019Z,59.38
2022-08-22T03:09:02.068Z,61.33
2022-08-22T03:11:36.984Z,59.95
2022-08-22T03:14:34.380Z,59.38
2022-08-22T03:17:16.608Z,58.40
2022-08-22T03:20:11.389Z,60.10
2022-08-22T03:22:55.824Z,59.35
2022-08-22T03:25:34.126Z,59.13
2022-08-22T03:28:24.777Z,58.22
2022-08-22T03:31:06.295Z,59.22
2022-08-22T03:33:34.143Z,57.70
2022-08-22T03:36:10.052Z,60.40
2022-08-22T03:38:44.850Z,57.60
2022-08-22T03:41:52.708Z,59.03
2022-08-22T03:44:36.243Z,58.85
2022-08-22T03:47:26.173Z,59.80
2022-08-22T03:50:05.279Z,61.78
2022-08-22T03:53:10.291Z,58.45
2022-08-22T03:56:12.339Z,60.05
2022-08-22T03:59:19.563Z,57.83
2022-08-22T04:02:31.454Z,58.72
2022-08-22T04:05:20.666Z,58.38
2022-08-22T04:07:48.680Z,54.75
2022-08-22T04:10:35.191Z,58.88
2022-08-22T04:13:14.910Z,57.33
2022-08-22T04:15:59.087Z,57.78
2022-08-22T04:21:38.860Z,58.03
2022-08-22T04:24:30.848Z,59.38
2022-08-22T04:27:05.360Z,60.03
2022-08-22T04:29:46.839Z,60.25
2022-08-22T04:32:42.984Z,56.95
2022-08-22T04:35:29.074Z,61.70
2022-08-22T04:38:08.987Z,56.95
2022-08-22T04:40:51.412Z,57.88
2022-08-22T04:43:39.569Z,59.33
2022-08-22T04:46:18.400Z,57.00
2022-08-22T04:49:44.847Z,57.78
2022-08-22T04:52:32.938Z,54.22
2022-08-22T04:55:03.831Z,57.95
2022-08-22T04:57:38.551Z,56.55
2022-08-22T05:00:09.311Z,56.60
2022-08-22T05:02:40.403Z,57.65
2022-08-22T05:05:16.080Z,57.67
2022-08-22T05:07:50.320Z,57.00
2022-08-22T05:10:51.320Z,55.97
2022-08-22T05:13:31.177Z,55.58
2022-08-22T05:16:03.475Z,56.75
2022-08-22T05:18:36.778Z,58.25
2022-08-22T05:21:07.468Z,59.45
2022-08-22T05:23:45.424Z,59.90
2022-08-22T05:26:14.160Z,63.47
2022-08-22T05:28:53.645Z,61.42
2022-08-22T05:31:26.477Z,61.40
2022-08-22T05:34:28.481Z,60.92
2022-08-22T05:37:10.970Z,60.17
2022-08-22T05:39:41.654Z,60.15
2022-08-22T05:42:18.524Z,63.03
2022-08-22T05:44:46.558Z,62.28
2022-08-22T05:47:27.899Z,61.95
2022-08-22T05:50:39.757Z,61.25
2022-08-22T05:53:10.028Z,60.05
2022-08-22T05:55:53.532Z,59.42
2022-08-22T05:58:39.726Z,60.08
2022-08-22T06:01:46.694Z,61.40
2022-08-22T06:04:23.596Z,61.20
2022-08-22T06:06:59.569Z,59.20
2022-08-22T06:09:34.669Z,57.50
2022-08-22T06:12:21.987Z,57.97
2022-08-22T06:15:13.376Z,55.33
2022-08-22T06:17:46.514Z,55.63
2022-08-22T06:20:24.630Z,54.60
2022-08-22T06:22:56.339Z,53.35
2022-08-22T06:25:37.941Z,52.50
2022-08-22T06:28:11.869Z,51.92
2022-08-22T06:30:40.160Z,51.70
2022-08-22T06:33:12.399Z,50.90
2022-08-22T06:36:07.635Z,52.75
2022-08-22T06:39:08.158Z,51.92
2022-08-22T06:41:48.407Z,52.28
2022-08-22T06:44:25.647Z,50.88
2022-08-22T06:46:58.746Z,50.38
2022-08-22T06:49:29.533Z,49.85
2022-08-22T06:52:02.331Z,47.03
2022-08-22T06:54:38.488Z,46.47
2022-08-22T06:57:07.172Z,46.08
2022-08-22T06:59:37.287Z,47.22
2022-08-22T07:02:23.696Z,45.33
2022-08-22T07:04:55.117Z,46.85
2022-08-22T07:07:26.680Z,46.35
2022-08-22T07:09:56.554Z,44.88
2022-08-22T07:12:32.510Z,43.83
2022-08-22T07:15:18.320Z,43.28
2022-08-22T07:17:57.569Z,41.00
2022-08-22T07:20:32.080Z,43.53
2022-08-22T07:23:06.906Z,42.25
2022-08-22T07:25:54.305Z,41.47
2022-08-22T07:28:51.485Z,42.38
2022-08-22T07:31:40.977Z,46.07
2022-08-22T07:34:53.633Z,43.95
2022-08-22T07:37:57.866Z,46.03
2022-08-22T07:40:46.941Z,44.13
2022-08-22T07:43:33.837Z,44.88
2022-08-22T07:46:36.302Z,44.00
2022-08-22T07:49:22.765Z,45.60
2022-08-22T07:51:54.586Z,43.83
2022-08-22T07:54:45.780Z,44.55
2022-08-22T07:57:32.359Z,42.05
2022-08-22T08:00:11.251Z,41.22
2022-08-22T08:02:51.005Z,42.50
2022-08-22T08:05:21.051Z,43.03
2022-08-22T08:07:53.175Z,43.72
2022-08-22T08:10:31.914Z,43.20
2022-08-22T08:13:04.391Z,45.65
2022-08-22T08:18:06.116Z,43.35
2022-08-22T08:20:36.057Z,44.25
2022-08-22T08:23:10.090Z,45.47
2022-08-22T08:26:00.457Z,44.92
2022-08-22T08:28:34.527Z,43.03
2022-08-22T08:31:28.124Z,41.40
2022-08-22T08:34:08.511Z,42.78
2022-08-22T08:36:57.108Z,42.30
2022-08-22T08:39:35.376Z,43.35
2022-08-22T08:42:14.956Z,43.05
2022-08-22T08:44:46.435Z,47.17
2022-08-22T08:47:33.428Z,47.65
2022-08-22T08:50:39.233Z,46.50
2022-08-22T08:53:32.957Z,47.63
2022-08-22T08:56:29.832Z,46.53
2022-08-22T08:59:33.111Z,49.10
2022-08-22T09:02:23.602Z,49.55
2022-08-22T09:05:28.010Z,45.83
2022-08-22T09:08:11.809Z,45.03
2022-08-22T09:10:58.428Z,46.85
2022-08-22T09:13:34.565Z,43.72
2022-08-22T09:16:15.794Z,46.20
2022-08-22T09:18:59.544Z,42.72
2022-08-22T09:21:30.829Z,42.97
2022-08-22T09:24:23.719Z,44.72
2022-08-22T09:26:57.091Z,44.87
2022-08-22T09:29:54.515Z,43.83
2022-08-22T09:32:44.128Z,41.55
2022-08-22T09:35:18.976Z,42.17
2022-08-22T09:38:29.178Z,39.63
2022-08-22T09:41:31.508Z,38.33
2022-08-22T09:44:39.909Z,37.25
2022-08-22T09:47:09.204Z,36.65
2022-08-22T09:49:37.073Z,34.75
2022-08-22T09:52:15.564Z,35.28
2022-08-22T09:55:13.425Z,35.65
2022-08-22T09:58:04.173Z,32.97
2022-08-22T10:00:54.955Z,33.97
2022-08-22T10:03:45.366Z,34.28
2022-08-22T10:06:20.376Z,33.00
2022-08-22T10:09:06.015Z,33.25
2022-08-22T10:11:46.553Z,30.08
2022-08-22T10:14:42.310Z,30.13
2022-08-22T10:17:41.095Z,29.00
2022-08-22T10:20:28.082Z,29.08
2022-08-22T10:23:10.938Z,26.73
2022-08-22T10:25:42.612Z,26.95
2022-08-22T10:28:28.486Z,26.42
2022-08-22T10:31:14.750Z,25.50
2022-08-22T10:34:03.674Z,24.90
2022-08-22T10:36:47.094Z,23.83
2022-08-22T10:39:37.566Z,25.02
2022-08-22T10:42:28.131Z,24.52
2022-08-22T10:45:35.291Z,25.05
2022-08-22T10:48:22.817Z,25.67
2022-08-22T10:50:55.899Z,19.05
2022-08-22T10:53:37.590Z,18.38
2022-08-22T10:56:21.303Z,17.10
2022-08-22T10:59:13.666Z,18.30
2022-08-22T11:02:08.367Z,16.27
2022-08-22T11:04:57.628Z,16.30
2022-08-22T11:07:48.580Z,12.65
2022-08-22T11:10:39.612Z,11.13
2022-08-22T11:13:50.966Z,10.15
2022-08-22T11:16:47.338Z,10.10
2022-08-22T11:19:21.296Z,10.40
2022-08-22T11:22:50.099Z,10.65
2022-08-22T11:25:52.630Z,10.68
2022-08-22T11:28:41.373Z,9.25
2022-08-22T11:31:23.323Z,7.80
2022-08-22T11:34:33.097Z,6.95
2022-08-22T11:37:20.704Z,8.02
2022-08-22T11:40:04.056Z,9.00
2022-08-22T11:42:47.559Z,9.48
2022-08-22T11:45:21.528Z,10.18
2022-08-22T11:48:30.504Z,11.07
2022-08-22T11:51:30.451Z,11.15
2022-08-22T11:54:18.252Z,12.55
2022-08-22T11:56:54.278Z,11.95
2022-08-22T11:59:25.230Z,14.63
2022-08-22T12:02:03.910Z,13.38
2022-08-22T12:04:34.618Z,13.95
2022-08-22T12:07:29.551Z,12.48
2022-08-22T12:10:13.818Z,13.32
2022-08-22T12:12:45.807Z,10.90
2022-08-22T12:15:34.674Z,10.48
2022-08-22T12:18:17.832Z,12.07
2022-08-22T12:21:16.401Z,9.10
2022-08-22T12:24:11.329Z,9.35
2022-08-22T12:27:28.823Z,9.10
2022-08-22T12:30:14.558Z,9.07
2022-08-22T12:33:23.104Z,6.43
2022-08-22T12:36:00.676Z,4.65
2022-08-22T12:39:07.667Z,4.05
2022-08-22T12:42:19.213Z,3.42
2022-08-22T12:45:36.553Z,3.00
2022-08-22T12:48:47.691Z,2.70
2022-08-22T12:51:25.025Z,2.92
2022-08-22T12:54:55.175Z,2.70
2022-08-22T12:58:43.111Z,2.58
2022-08-22T13:23:31.376Z,2.63
2022-08-22T13:29:25.115Z,2.33
2022-08-22T13:32:30.776Z,2.60
2022-08-22T13:36:03.201Z,2.20
2022-08-22T13:38:50.895Z,2.30
2022-08-22T13:44:40.695Z,2.25
2022-08-22T13:47:14.964Z,2.38
2022-08-22T13:49:46.745Z,2.65
2022-08-22T13:52:32.416Z,2.30
2022-08-22T13:55:13.666Z,2.65
2022-08-22T13:57:51.755Z,2.28
2022-08-22T14:00:28.856Z,2.53
2022-08-22T14:03:07.940Z,2.45
2022-08-22T14:05:44.653Z,2.15
2022-08-22T14:08:19.723Z,2.40
2022-08-22T14:11:18.967Z,2.90
2022-08-22T14:14:08.180Z,2.10
2022-08-22T14:16:40.111Z,2.38
2022-08-22T14:19:38.275Z,2.20
2022-08-22T14:22:34.596Z,2.63
2022-08-22T14:25:31.875Z,2.45
2022-08-22T14:28:06.344Z,2.47
2022-08-22T14:30:59.443Z,2.42
2022-08-22T14:33:34.192Z,2.70
2022-08-22T14:36:04.963Z,3.10
2022-08-22T14:38:32.794Z,2.53
2022-08-22T14:41:25.385Z,2.67
2022-08-22T14:43:58.943Z,2.63
2022-08-22T14:46:47.748Z,2.72
2022-08-22T14:49:43.431Z,2.55
2022-08-22T14:52:48.672Z,2.35
2022-08-22T14:55:24.101Z,2.78
2022-08-22T14:58:03.269Z,2.40
2022-08-22T15:00:37.962Z,2.90
2022-08-22T15:03:26.268Z,2.42
2022-08-22T15:06:04.549Z,2.70
2022-08-22T15:08:46.388Z,2.35
2022-08-22T15:11:26.068Z,2.53
2022-08-22T15:14:12.603Z,2.30
2022-08-22T15:17:05.448Z,2.50
2022-08-22T15:19:52.119Z,2.35
2022-08-22T15:22:27.833Z,2.35
2022-08-22T15:25:12.973Z,2.10
2022-08-22T15:27:55.121Z,2.25
2022-08-22T15:30:44.280Z,2.17
2022-08-22T15:33:18.913Z,2.33
2022-08-22T15:35:51.435Z,2.33
2022-08-22T15:38:42.116Z,2.92
2022-08-22T15:41:36.561Z,2.47
2022-08-22T15:44:14.880Z,2.28
2022-08-22T15:47:24.090Z,2.03
2022-08-22T15:50:02.079Z,2.58
2022-08-22T15:52:59.085Z,2.15
2022-08-22T15:55:34.529Z,2.03
2022-08-22T15:58:07.264Z,2.10
2022-08-22T16:01:05.224Z,2.33
2022-08-22T16:04:02.699Z,2.03
2022-08-22T16:06:49.592Z,2.20
2022-08-22T16:09:45.896Z,2.20
2022-08-22T16:12:48.759Z,2.40
2022-08-22T16:15:50.308Z,3.25
2022-08-22T16:18:37.287Z,2.80
2022-08-22T16:21:16.060Z,2.60
2022-08-22T16:23:46.536Z,2.50
2022-08-22T16:26:28.137Z,2.80
2022-08-22T16:29:12.532Z,2.60
2022-08-22T16:31:48.152Z,2.80
2022-08-22T16:34:38.267Z,3.38
2022-08-22T16:37:18.106Z,2.80
2022-08-22T16:39:51.776Z,2.53
2022-08-22T16:42:23.758Z,2.88
2022-08-22T16:45:32.830Z,2.28
2022-08-22T16:48:33.735Z,3.50
2022-08-22T16:51:15.149Z,3.50
2022-08-22T16:54:10.399Z,2.72
2022-08-22T16:57:14.664Z,3.80
2022-08-22T17:00:09.002Z,3.28
2022-08-22T17:03:01.088Z,3.05
2022-08-22T17:05:35.541Z,2.93
2022-08-22T17:08:14.599Z,3.38
2022-08-22T17:11:15.769Z,3.35
2022-08-22T17:13:51.815Z,3.40
2022-08-22T17:16:53.780Z,3.10
2022-08-22T17:20:03.693Z,3.40
2022-08-22T17:23:08.640Z,4.03
2022-08-22T17:25:45.793Z,4.28
2022-08-22T17:28:48.601Z,5.35
2022-08-22T17:31:49.000Z,5.18
2022-08-22T17:34:22.235Z,4.82
2022-08-22T17:37:27.384Z,4.13
2022-08-22T17:40:11.713Z,3.72
2022-08-22T17:42:48.402Z,4.90
2022-08-22T17:45:28.090Z,3.70
2022-08-22T17:48:18.935Z,3.60
2022-08-22T17:50:57.291Z,4.22
2022-08-22T17:53:27.956Z,3.10
2022-08-22T17:56:31.537Z,3.00
2022-08-22T17:59:37.733Z,3.17
2022-08-22T18:02:16.998Z,3.50
2022-08-22T18:05:07.143Z,3.30
2022-08-22T18:07:53.622Z,3.17
2022-08-22T18:10:54.785Z,2.95
2022-08-22T18:13:45.859Z,2.42
2022-08-22T18:16:16.609Z,2.70
2022-08-22T18:18:56.664Z,3.10
2022-08-22T18:21:49.137Z,2.97
2022-08-22T18:24:25.214Z,3.20
2022-08-22T18:26:52.994Z,3.90
2022-08-22T18:30:10.838Z,3.10
2022-08-22T18:32:54.954Z,3.22
2022-08-22T18:35:40.229Z,3.90
2022-08-22T18:38:40.085Z,3.92
2022-08-22T18:41:17.850Z,2.80
2022-08-22T18:43:48.360Z,3.42
2022-08-22T18:46:38.774Z,3.08
2022-08-22T18:49:24.786Z,2.80
2022-08-22T18:52:13.712Z,3.58
2022-08-22T18:55:06.488Z,3.17
2022-08-22T18:57:52.826Z,2.90
2022-08-22T19:00:34.885Z,2.90
2022-08-22T19:03:14.865Z,3.10
2022-08-22T19:06:00.585Z,3.17
2022-08-22T19:08:33.726Z,3.50
2022-08-22T19:11:16.554Z,3.45
2022-08-22T19:17:12.801Z,3.35
2022-08-22T19:20:19.753Z,3.27
2022-08-22T19:22:55.354Z,3.65
2022-08-22T19:25:27.940Z,3.30
2022-08-22T19:30:47.860Z,3.87
2022-08-22T19:33:29.296Z,3.75
2022-08-22T19:36:10.079Z,4.43
2022-08-22T19:38:53.170Z,4.10
2022-08-22T19:41:41.269Z,4.82
2022-08-22T19:44:11.769Z,4.38
2022-08-22T19:47:01.579Z,4.97
2022-08-22T19:49:32.660Z,4.20
2022-08-22T19:52:15.761Z,4.50
2022-08-22T19:55:24.055Z,4.60
2022-08-22T19:57:52.888Z,4.28
2022-08-22T20:00:23.432Z,4.60
2022-08-22T20:03:10.754Z,4.38
2022-08-22T20:05:58.641Z,4.88
2022-08-22T20:08:42.402Z,4.85
2022-08-22T20:11:26.575Z,5.70
2022-08-22T20:14:11.819Z,5.32
2022-08-22T20:17:10.596Z,5.35
2022-08-22T20:22:44.634Z,6.70
2022-08-22T20:25:42.842Z,6.63
2022-08-22T20:28:08.740Z,6.47
2022-08-22T20:30:40.722Z,6.32
2022-08-22T20:33:14.874Z,7.07
2022-08-22T20:35:55.145Z,7.38
2022-08-22T20:38:35.261Z,6.22
2022-08-22T20:41:21.086Z,7.78
2022-08-22T20:43:54.198Z,6.85
2022-08-22T20:46:53.217Z,8.07
2022-08-22T20:49:32.000Z,6.85
2022-08-22T20:52:03.717Z,7.57
2022-08-22T20:54:34.196Z,8.57
2022-08-22T20:57:16.158Z,9.13
2022-08-22T20:59:57.838Z,8.68
2022-08-22T21:02:39.888Z,8.73
2022-08-22T21:05:13.700Z,9.83
2022-08-22T21:07:44.253Z,8.77
2022-08-22T21:10:30.481Z,10.35
2022-08-22T21:13:19.728Z,9.43
2022-08-22T21:15:54.323Z,9.98
2022-08-22T21:18:34.272Z,10.60
2022-08-22T21:21:17.359Z,8.77
2022-08-22T21:23:48.744Z,10.55
2022-08-22T21:26:47.766Z,12.38
2022-08-22T21:29:15.560Z,13.63
2022-08-22T21:32:07.980Z,13.05
2022-08-22T21:34:41.352Z,13.38
2022-08-22T21:37:32.391Z,13.55
2022-08-22T21:40:39.942Z,15.52
2022-08-22T21:43:10.893Z,16.48
2022-08-22T21:45:38.658Z,16.98
2022-08-22T21:48:37.590Z,16.60
2022-08-22T21:51:40.965Z,17.02
2022-08-22T21:56:51.201Z,17.05
2022-08-22T21:59:50.809Z,17.70
2022-08-22T22:02:36.397Z,17.85
2022-08-22T22:05:09.187Z,18.42
2022-08-22T22:07:39.151Z,17.40
2022-08-22T22:10:10.407Z,18.23
2022-08-22T22:12:40.919Z,17.45
2022-08-22T22:15:10.635Z,17.45
2022-08-22T22:17:38.471Z,19.08
2022-08-22T22:20:07.837Z,18.35
2022-08-22T22:22:37.032Z,17.27
2022-08-22T22:25:39.855Z,18.08
2022-08-22T22:27:59.713Z,17.92
2022-08-22T22:30:27.656Z,19.17
2022-08-22T22:32:55.483Z,17.23
2022-08-22T22:35:23.284Z,18.63
2022-08-22T22:37:51.072Z,17.30
2022-08-22T22:40:19.264Z,17.55
2022-08-22T22:42:47.150Z,16.85
2022-08-22T22:45:14.956Z,17.45
2022-08-22T22:48:15.750Z,16.58
2022-08-22T22:50:54.817Z,16.45
2022-08-22T22:53:38.695Z,16.75
2022-08-22T22:56:15.845Z,17.60
2022-08-22T22:58:48.140Z,16.73
2022-08-22T23:01:24.153Z,15.93
2022-08-22T23:03:56.985Z,17.25
2022-08-22T23:06:26.800Z,15.82
2022-08-22T23:08:57.884Z,16.15
2022-08-22T23:11:28.425Z,15.20
2022-08-22T23:13:56.727Z,16.75
2022-08-22T23:16:28.022Z,17.40
2022-08-22T23:18:55.924Z,15.23
2022-08-22T23:21:27.205Z,15.05
2022-08-22T23:23:57.054Z,15.85
2022-08-22T23:26:25.319Z,15.32
2022-08-22T23:28:53.296Z,16.15
2022-08-22T23:31:37.406Z,16.23
2022-08-22T23:34:09.409Z,17.05
2022-08-22T23:36:38.127Z,15.65
2022-08-22T23:39:07.955Z,16.27
2022-08-22T23:41:37.156Z,15.77
2022-08-22T23:44:07.107Z,16.75
2022-08-22T23:46:37.023Z,16.27
2022-08-22T23:49:06.515Z,15.63
2022-08-22T23:51:37.797Z,16.73
2022-08-22T23:54:05.701Z,15.07
2022-08-22T23:56:35.571Z,16.48
2022-08-22T23:59:06.661Z,15.65
